메인 페이지
METAR-TAF:

METAR-TAF

공항 :

실비오 페티로시 국제공항

아순시온, 파라과이

위도: 25-16S, 경도: 057-38W, 고도: 101m

현재 날씨관측

예보는 38분 전, 18:00시(UTC)에 발표되었습니다.
북동6kt풍과 동북동풍을 오가는
온도 29°C
습도 52%
기압 1012 hPa
시정 10km 이상
1500m 미만 상공 구름 및 적란운 없음

METAR: SGAS 221800Z 04006KT 360V070 CAVOK 29/18 Q1012

시각: 14:38 (18:38 UTC)

예보

예보는 2 시간 31분 전, 16:07시(UTC)에 발표되었습니다.
예보 대상 시간: 22일 18시부터 23일 18시까지 (UTC)
북북동8kt
시정 10km 이상
1500m 미만 상공 구름 및 적란운 없음
전환 중
22일 19시부터 22일 20시까지 (UTC)
동북동10kt
시정 10km 이상
고도 3000ft 상공 구름 보통
일시적
22일 22시부터 23일 00시까지 (UTC)
여러 방향의 바람 3kt
시정: 7000m
전환 중
23일 03시부터 23일 05시까지 (UTC)
시정 10km 이상
1500m 미만 상공 구름 및 적란운 없음

TAF: SGAS 221607Z 2218/2318 03008KT CAVOK TX31/2219Z TN20/2309Z BECMG 2219/2220 07010KT 9999 SCT030 TEMPO 2222/2300 VRB03KT 7000 NSC BECMG 2303/2305 CAVOK

4,000개 이상의 공항 관측 자료 및 예보 (METAR 및 TAF 보고).

지도상에서 검색 가능한 기상관측소가 노란 점과 빨간 점으로 표시되어 있습니다.

기상관측소 명을 보려면 표시 위로 마우스를 이동하세요.

날씨 관측과 예보를 보려면 클릭하세요.

지도 변경 : 확대하려면 엑스 표시가 있는 녹색 버튼, 축소하려면 빼기 표시가 있는 녹색 버튼, 다음 페이지의 지도를 보려면 녹색 화살표를 클릭하세요.


METAR-TAF: